RA5225 UUWW-UUDD
Flight info
| Callsign | RA5225 |
|---|---|
| Flight time | 0h 34m |
| Altitude | 1500 |
| Route | ULGIV DCT DUZZU DCT LUTGE DCT UMDUS DCT ESEBE DCT SAGVE DCT OKPUV DCT EMBOG DCT TRIAR DCT ELLEZ DCT NAGGO DCT GEKLA DCT OZFUR |
| Aircraft | K100/L-SBDGRY/S |
Departure
| Time | 2026-05-06 14:04 |
|---|---|
| Airport | Vnukovo International Airport (UUWW) |
Arrival
| Time | 2026-05-06 14:38 |
|---|---|
| Airport | Domodedovo International Airport (UUDD) |
| Time | Latitude | Longitude | Altitude | Speed | Heading |
|---|---|---|---|---|---|
| 2026-05-06 13:43 | 55.59877 | 37.28277 | 676 ft | 0 kts | 174° |
| 2026-05-06 13:57 | 55.59882 | 37.28334 | 676 ft | 6 kts | 17° |
| 2026-05-06 13:57 | 55.59893 | 37.28334 | 676 ft | 0 kts | 352° |
| 2026-05-06 13:57 | 55.59940 | 37.28322 | 676 ft | 15 kts | 352° |
| 2026-05-06 13:58 | 55.60062 | 37.28341 | 676 ft | 19 kts | 20° |
| 2026-05-06 13:58 | 55.60171 | 37.28504 | 676 ft | 19 kts | 49° |
| 2026-05-06 13:58 | 55.60218 | 37.28681 | 676 ft | 10 kts | 76° |
| 2026-05-06 13:58 | 55.60219 | 37.28689 | 676 ft | 0 kts | 86° |
| 2026-05-06 14:01 | 55.60198 | 37.28750 | 676 ft | 18 kts | 136° |
| 2026-05-06 14:01 | 55.60074 | 37.28888 | 676 ft | 22 kts | 166° |
| 2026-05-06 14:01 | 55.59960 | 37.28935 | 681 ft | 14 kts | 167° |
| 2026-05-06 14:02 | 55.59919 | 37.28953 | 682 ft | 0 kts | 162° |
| 2026-05-06 14:02 | 55.59896 | 37.28963 | 683 ft | 11 kts | 165° |
| 2026-05-06 14:02 | 55.59786 | 37.28946 | 688 ft | 22 kts | 233° |
| 2026-05-06 14:02 | 55.59679 | 37.28483 | 683 ft | 79 kts | 248° |
| 2026-05-06 14:03 | 55.59414 | 37.27262 | 790 ft | 129 kts | 249° |
| 2026-05-06 14:03 | 55.59073 | 37.25592 | 886 ft | 156 kts | 253° |
| 2026-05-06 14:03 | 55.58402 | 37.24029 | 885 ft | 168 kts | 211° |
| 2026-05-06 14:03 | 55.57277 | 37.23859 | 984 ft | 167 kts | 158° |
| 2026-05-06 14:04 | 55.56570 | 37.25382 | 1141 ft | 168 kts | 100° |
| 2026-05-06 14:04 | 55.56937 | 37.27261 | 1297 ft | 170 kts | 42° |
| 2026-05-06 14:04 | 55.58034 | 37.27959 | 1438 ft | 171 kts | 10° |
| 2026-05-06 14:04 | 55.59180 | 37.28562 | 1447 ft | 177 kts | 24° |
| 2026-05-06 14:05 | 55.60203 | 37.29778 | 1449 ft | 179 kts | 44° |
| 2026-05-06 14:05 | 55.61055 | 37.31391 | 1453 ft | 180 kts | 48° |
| 2026-05-06 14:05 | 55.61896 | 37.33034 | 1452 ft | 180 kts | 48° |
| 2026-05-06 14:05 | 55.62748 | 37.34663 | 1449 ft | 180 kts | 47° |
| 2026-05-06 14:06 | 55.63603 | 37.36290 | 1450 ft | 180 kts | 47° |
| 2026-05-06 14:06 | 55.64453 | 37.37921 | 1448 ft | 180 kts | 47° |
| 2026-05-06 14:06 | 55.65305 | 37.39555 | 1448 ft | 181 kts | 47° |
| 2026-05-06 14:06 | 55.66229 | 37.41040 | 1451 ft | 179 kts | 30° |
| 2026-05-06 14:07 | 55.67385 | 37.41701 | 1449 ft | 172 kts | 6° |
| 2026-05-06 14:07 | 55.68550 | 37.41525 | 1473 ft | 166 kts | 342° |
| 2026-05-06 14:07 | 55.69595 | 37.40737 | 1566 ft | 161 kts | 335° |
| 2026-05-06 14:07 | 55.70590 | 37.39964 | 1660 ft | 152 kts | 335° |
| 2026-05-06 14:08 | 55.71538 | 37.39221 | 1752 ft | 147 kts | 334° |
| 2026-05-06 14:08 | 55.72477 | 37.38484 | 1849 ft | 148 kts | 336° |
| 2026-05-06 14:08 | 55.73495 | 37.38149 | 1938 ft | 151 kts | 353° |
| 2026-05-06 14:08 | 55.74567 | 37.37937 | 1939 ft | 158 kts | 352° |
| 2026-05-06 14:09 | 55.75671 | 37.37695 | 1951 ft | 162 kts | 350° |
| 2026-05-06 14:09 | 55.76796 | 37.37448 | 1951 ft | 164 kts | 350° |
| 2026-05-06 14:09 | 55.77930 | 37.37205 | 1953 ft | 165 kts | 351° |
| 2026-05-06 14:09 | 55.79077 | 37.37236 | 1946 ft | 168 kts | 12° |
| 2026-05-06 14:10 | 55.79793 | 37.37754 | 1947 ft | 169 kts | 27° |
| 2026-05-06 14:10 | 55.80836 | 37.38689 | 1948 ft | 167 kts | 14° |
| 2026-05-06 14:10 | 55.82359 | 37.39147 | 1952 ft | 166 kts | 7° |
| 2026-05-06 14:10 | 55.83474 | 37.39586 | 1951 ft | 166 kts | 8° |
| 2026-05-06 14:11 | 55.84618 | 37.39852 | 1947 ft | 166 kts | 4° |
| 2026-05-06 14:11 | 55.85769 | 37.40079 | 1947 ft | 166 kts | 4° |
| 2026-05-06 14:11 | 55.86920 | 37.40309 | 1951 ft | 166 kts | 4° |
| 2026-05-06 14:11 | 55.87662 | 37.40713 | 1945 ft | 168 kts | 33° |
| 2026-05-06 14:12 | 55.88255 | 37.43156 | 1951 ft | 169 kts | 88° |
| 2026-05-06 14:12 | 55.88291 | 37.45252 | 1952 ft | 170 kts | 88° |
| 2026-05-06 14:12 | 55.88439 | 37.46640 | 1979 ft | 168 kts | 68° |
| 2026-05-06 14:12 | 55.89002 | 37.48432 | 2106 ft | 167 kts | 59° |
| 2026-05-06 14:13 | 55.89594 | 37.50274 | 2235 ft | 174 kts | 60° |
| 2026-05-06 14:13 | 55.90202 | 37.52155 | 2369 ft | 176 kts | 59° |
| 2026-05-06 14:13 | 55.90624 | 37.54184 | 2498 ft | 176 kts | 80° |
| 2026-05-06 14:13 | 55.90852 | 37.56309 | 2636 ft | 177 kts | 79° |
| 2026-05-06 14:14 | 55.90849 | 37.58480 | 2744 ft | 176 kts | 106° |
| 2026-05-06 14:14 | 55.90519 | 37.60595 | 2869 ft | 178 kts | 107° |
| 2026-05-06 14:14 | 55.90210 | 37.62730 | 2993 ft | 179 kts | 107° |
| 2026-05-06 14:14 | 55.89897 | 37.64853 | 3116 ft | 176 kts | 107° |
| 2026-05-06 14:15 | 55.89581 | 37.66957 | 3236 ft | 176 kts | 106° |
| 2026-05-06 14:15 | 55.89437 | 37.69114 | 3359 ft | 175 kts | 99° |
| 2026-05-06 14:15 | 55.89017 | 37.71113 | 3483 ft | 172 kts | 127° |
| 2026-05-06 14:15 | 55.88237 | 37.72709 | 3609 ft | 171 kts | 137° |
| 2026-05-06 14:16 | 55.87415 | 37.74273 | 3737 ft | 175 kts | 137° |
| 2026-05-06 14:16 | 55.86585 | 37.75868 | 3863 ft | 176 kts | 137° |
| 2026-05-06 14:16 | 55.85744 | 37.77473 | 3935 ft | 179 kts | 137° |
| 2026-05-06 14:16 | 55.84881 | 37.79110 | 3945 ft | 183 kts | 137° |
| 2026-05-06 14:17 | 55.84006 | 37.80771 | 3943 ft | 184 kts | 137° |
| 2026-05-06 14:17 | 55.83106 | 37.82389 | 3944 ft | 182 kts | 146° |
| 2026-05-06 14:17 | 55.81993 | 37.83374 | 3952 ft | 178 kts | 168° |
| 2026-05-06 14:17 | 55.80782 | 37.83691 | 3952 ft | 175 kts | 178° |
| 2026-05-06 14:18 | 55.79566 | 37.83932 | 3957 ft | 176 kts | 176° |
| 2026-05-06 14:18 | 55.78349 | 37.84187 | 3960 ft | 176 kts | 177° |
| 2026-05-06 14:18 | 55.77132 | 37.84428 | 3955 ft | 176 kts | 177° |
| 2026-05-06 14:18 | 55.75912 | 37.84666 | 3948 ft | 176 kts | 177° |
| 2026-05-06 14:19 | 55.74693 | 37.84905 | 3949 ft | 176 kts | 177° |
| 2026-05-06 14:19 | 55.73475 | 37.85145 | 3953 ft | 176 kts | 177° |
| 2026-05-06 14:19 | 55.72255 | 37.85383 | 3947 ft | 176 kts | 177° |
| 2026-05-06 14:19 | 55.71036 | 37.85622 | 3947 ft | 176 kts | 177° |
| 2026-05-06 14:20 | 55.69816 | 37.85861 | 3952 ft | 176 kts | 177° |
| 2026-05-06 14:20 | 55.68598 | 37.86100 | 3949 ft | 176 kts | 177° |
| 2026-05-06 14:20 | 55.67378 | 37.86339 | 3947 ft | 176 kts | 177° |
| 2026-05-06 14:20 | 55.66159 | 37.86578 | 3950 ft | 176 kts | 177° |
| 2026-05-06 14:21 | 55.64956 | 37.86501 | 3951 ft | 172 kts | 195° |
| 2026-05-06 14:21 | 55.63777 | 37.86182 | 3957 ft | 175 kts | 175° |
| 2026-05-06 14:21 | 55.63186 | 37.87735 | 3866 ft | 192 kts | 66° |
| 2026-05-06 14:21 | 55.63237 | 37.89982 | 3890 ft | 183 kts | 125° |
| 2026-05-06 14:22 | 55.62171 | 37.91028 | 3680 ft | 183 kts | 174° |
| 2026-05-06 14:22 | 55.60932 | 37.91191 | 3563 ft | 180 kts | 169° |
| 2026-05-06 14:22 | 55.59867 | 37.92329 | 3453 ft | 181 kts | 140° |
| 2026-05-06 14:22 | 55.58917 | 37.93769 | 3336 ft | 179 kts | 149° |
| 2026-05-06 14:23 | 55.57832 | 37.94824 | 3219 ft | 178 kts | 156° |
| 2026-05-06 14:23 | 55.56725 | 37.95803 | 3100 ft | 179 kts | 155° |
| 2026-05-06 14:23 | 55.55570 | 37.96606 | 2978 ft | 178 kts | 166° |
| 2026-05-06 14:23 | 55.54381 | 37.97146 | 2973 ft | 175 kts | 167° |
| 2026-05-06 14:24 | 55.53213 | 37.97678 | 2974 ft | 173 kts | 167° |
| 2026-05-06 14:24 | 55.52053 | 37.98210 | 2975 ft | 172 kts | 167° |
| 2026-05-06 14:24 | 55.50892 | 37.98713 | 2975 ft | 172 kts | 168° |
| 2026-05-06 14:24 | 55.49733 | 37.99212 | 2975 ft | 171 kts | 168° |
| 2026-05-06 14:25 | 55.48575 | 37.99714 | 2976 ft | 172 kts | 168° |
| 2026-05-06 14:25 | 55.47415 | 38.00218 | 2975 ft | 172 kts | 168° |
| 2026-05-06 14:25 | 55.46257 | 38.00721 | 2976 ft | 172 kts | 168° |
| 2026-05-06 14:25 | 55.45088 | 38.01227 | 2974 ft | 173 kts | 168° |
| 2026-05-06 14:26 | 55.43917 | 38.01732 | 2975 ft | 174 kts | 168° |
| 2026-05-06 14:26 | 55.42743 | 38.02238 | 2974 ft | 174 kts | 168° |
| 2026-05-06 14:26 | 55.41635 | 38.02975 | 2975 ft | 174 kts | 145° |
| 2026-05-06 14:26 | 55.40743 | 38.04434 | 2978 ft | 176 kts | 139° |
| 2026-05-06 14:27 | 55.39831 | 38.05870 | 2979 ft | 176 kts | 142° |
| 2026-05-06 14:27 | 55.38893 | 38.07257 | 2978 ft | 176 kts | 142° |
| 2026-05-06 14:27 | 55.37953 | 38.08646 | 2939 ft | 178 kts | 142° |
| 2026-05-06 14:27 | 55.36997 | 38.10057 | 2853 ft | 181 kts | 142° |
| 2026-05-06 14:28 | 55.36028 | 38.11475 | 2754 ft | 181 kts | 142° |
| 2026-05-06 14:28 | 55.35052 | 38.12888 | 2648 ft | 181 kts | 142° |
| 2026-05-06 14:28 | 55.34077 | 38.14289 | 2551 ft | 181 kts | 142° |
| 2026-05-06 14:28 | 55.33105 | 38.15682 | 2451 ft | 180 kts | 143° |
| 2026-05-06 14:29 | 55.32133 | 38.17069 | 2354 ft | 180 kts | 142° |
| 2026-05-06 14:29 | 55.31161 | 38.18452 | 2254 ft | 180 kts | 142° |
| 2026-05-06 14:29 | 55.30188 | 38.19832 | 2154 ft | 179 kts | 142° |
| 2026-05-06 14:29 | 55.29218 | 38.21204 | 2056 ft | 179 kts | 142° |
| 2026-05-06 14:30 | 55.28251 | 38.22571 | 1973 ft | 178 kts | 142° |
| 2026-05-06 14:30 | 55.27201 | 38.23582 | 1971 ft | 172 kts | 171° |
| 2026-05-06 14:30 | 55.26069 | 38.23106 | 1976 ft | 173 kts | 215° |
| 2026-05-06 14:30 | 55.25408 | 38.21366 | 1974 ft | 175 kts | 247° |
| 2026-05-06 14:31 | 55.24993 | 38.19358 | 1976 ft | 175 kts | 248° |
| 2026-05-06 14:31 | 55.24578 | 38.17346 | 1975 ft | 175 kts | 248° |
| 2026-05-06 14:31 | 55.24163 | 38.15339 | 1975 ft | 175 kts | 248° |
| 2026-05-06 14:31 | 55.23754 | 38.13352 | 1973 ft | 176 kts | 248° |
| 2026-05-06 14:32 | 55.23338 | 38.11344 | 1975 ft | 175 kts | 248° |
| 2026-05-06 14:32 | 55.23060 | 38.09278 | 1973 ft | 178 kts | 271° |
| 2026-05-06 14:32 | 55.23580 | 38.07346 | 1974 ft | 178 kts | 316° |
| 2026-05-06 14:32 | 55.24643 | 38.06672 | 1966 ft | 164 kts | 4° |
| 2026-05-06 14:33 | 55.25648 | 38.07467 | 1963 ft | 158 kts | 32° |
| 2026-05-06 14:33 | 55.26663 | 38.07720 | 1961 ft | 144 kts | 339° |
| 2026-05-06 14:33 | 55.27500 | 38.06809 | 1965 ft | 142 kts | 323° |
| 2026-05-06 14:33 | 55.28277 | 38.05760 | 1964 ft | 140 kts | 310° |
| 2026-05-06 14:34 | 55.28905 | 38.04464 | 1964 ft | 139 kts | 308° |
| 2026-05-06 14:34 | 55.29437 | 38.03064 | 1967 ft | 138 kts | 295° |
| 2026-05-06 14:34 | 55.30032 | 38.01769 | 1965 ft | 137 kts | 321° |
| 2026-05-06 14:34 | 55.30794 | 38.00819 | 1965 ft | 133 kts | 324° |
| 2026-05-06 14:35 | 55.31547 | 37.99900 | 1961 ft | 131 kts | 324° |
| 2026-05-06 14:35 | 55.32293 | 37.98999 | 1960 ft | 130 kts | 324° |
| 2026-05-06 14:35 | 55.33040 | 37.98103 | 1961 ft | 130 kts | 324° |
| 2026-05-06 14:35 | 55.33779 | 37.97220 | 1972 ft | 125 kts | 325° |
| 2026-05-06 14:36 | 55.34480 | 37.96380 | 1979 ft | 120 kts | 324° |
| 2026-05-06 14:36 | 55.35179 | 37.95539 | 1884 ft | 126 kts | 325° |
| 2026-05-06 14:36 | 55.35925 | 37.94653 | 1696 ft | 132 kts | 325° |
| 2026-05-06 14:36 | 55.36682 | 37.93723 | 1484 ft | 134 kts | 325° |
| 2026-05-06 14:37 | 55.37456 | 37.92815 | 1087 ft | 125 kts | 327° |
| 2026-05-06 14:37 | 55.38155 | 37.91986 | 861 ft | 124 kts | 325° |
| 2026-05-06 14:37 | 55.38881 | 37.91101 | 714 ft | 130 kts | 327° |
| 2026-05-06 14:37 | 55.39629 | 37.90197 | 563 ft | 131 kts | 327° |
| 2026-05-06 14:38 | 55.40336 | 37.89351 | 552 ft | 109 kts | 324° |
| 2026-05-06 14:38 | 55.40853 | 37.88726 | 553 ft | 61 kts | 326° |
| 2026-05-06 14:38 | 55.41100 | 37.88435 | 553 ft | 40 kts | 330° |
| 2026-05-06 14:38 | 55.41366 | 37.88344 | 550 ft | 13 kts | 356° |
| 2026-05-06 14:39 | 55.41486 | 37.88339 | 549 ft | 23 kts | 359° |
| 2026-05-06 14:39 | 55.41552 | 37.88455 | 548 ft | 25 kts | 99° |
| 2026-05-06 14:39 | 55.41305 | 37.88815 | 548 ft | 57 kts | 154° |
| 2026-05-06 14:39 | 55.41102 | 37.88987 | 548 ft | 0 kts | 154° |